sensor_id;sensor_type;location;lat;lon;timestamp;pressure;altitude;pressure_sealevel;temperature;humidity
86328;BME280;76984;52.332;10.562;2024-03-07T00:01:28;101875.84;;;1.29;80.66
86328;BME280;76984;52.332;10.562;2024-03-07T00:03:53;101875.88;;;1.22;80.58
86328;BME280;76984;52.332;10.562;2024-03-07T00:06:18;101853.34;;;1.02;80.97
86328;BME280;76984;52.332;10.562;2024-03-07T00:08:46;101878.94;;;1.07;80.99
86328;BME280;76984;52.332;10.562;2024-03-07T00:11:11;101851.34;;;0.84;80.38
86328;BME280;76984;52.332;10.562;2024-03-07T00:13:36;101875.66;;;0.92;81.11
86328;BME280;76984;52.332;10.562;2024-03-07T00:16:02;101857.06;;;0.76;81.08
86328;BME280;76984;52.332;10.562;2024-03-07T00:18:27;101838.28;;;0.61;81.46
86328;BME280;76984;52.332;10.562;2024-03-07T00:20:53;101854.22;;;0.57;82.47
86328;BME280;76984;52.332;10.562;2024-03-07T00:23:20;101878.69;;;0.71;82.35
86328;BME280;76984;52.332;10.562;2024-03-07T00:25:45;101857.00;;;0.51;82.12
86328;BME280;76984;52.332;10.562;2024-03-07T00:28:11;101843.41;;;0.38;82.21
86328;BME280;76984;52.332;10.562;2024-03-07T00:30:36;101870.00;;;0.49;82.58
86328;BME280;76984;52.332;10.562;2024-03-07T00:33:02;101852.66;;;0.30;82.17
86328;BME280;76984;52.332;10.562;2024-03-07T00:35:27;101849.09;;;0.30;82.50
86328;BME280;76984;52.332;10.562;2024-03-07T00:37:52;101865.19;;;0.38;82.41
86328;BME280;76984;52.332;10.562;2024-03-07T00:40:18;101872.97;;;0.41;81.84
86328;BME280;76984;52.332;10.562;2024-03-07T00:42:44;101850.94;;;0.42;83.13
86328;BME280;76984;52.332;10.562;2024-03-07T00:45:09;101876.00;;;0.57;82.82
86328;BME280;76984;52.332;10.562;2024-03-07T00:47:35;101856.75;;;0.52;83.08
86328;BME280;76984;52.332;10.562;2024-03-07T00:50:00;101874.53;;;0.68;82.82
86328;BME280;76984;52.332;10.562;2024-03-07T00:52:26;101864.00;;;0.72;83.54
86328;BME280;76984;52.332;10.562;2024-03-07T00:54:51;101845.78;;;0.66;83.29
86328;BME280;76984;52.332;10.562;2024-03-07T00:57:16;101844.47;;;0.75;83.50
86328;BME280;76984;52.332;10.562;2024-03-07T00:59:42;101859.28;;;0.92;83.85
86328;BME280;76984;52.332;10.562;2024-03-07T01:02:07;101866.78;;;1.03;83.56
86328;BME280;76984;52.332;10.562;2024-03-07T01:04:32;101862.94;;;1.11;83.80
86328;BME280;76984;52.332;10.562;2024-03-07T01:06:59;101863.75;;;1.18;83.28
86328;BME280;76984;52.332;10.562;2024-03-07T01:09:25;101861.41;;;1.22;84.13
86328;BME280;76984;52.332;10.562;2024-03-07T01:11:50;101842.75;;;1.19;84.06
86328;BME280;76984;52.332;10.562;2024-03-07T01:14:15;101845.41;;;1.25;83.81
86328;BME280;76984;52.332;10.562;2024-03-07T01:16:41;101838.47;;;1.29;84.49
86328;BME280;76984;52.332;10.562;2024-03-07T01:19:07;101806.25;;;1.13;84.05
86328;BME280;76984;52.332;10.562;2024-03-07T01:21:35;101852.34;;;1.53;84.05
86328;BME280;76984;52.332;10.562;2024-03-07T01:24:01;101863.44;;;1.58;84.03
86328;BME280;76984;52.332;10.562;2024-03-07T01:26:30;101836.59;;;1.55;84.31
86328;BME280;76984;52.332;10.562;2024-03-07T01:28:56;101870.06;;;1.68;83.33
86328;BME280;76984;52.332;10.562;2024-03-07T01:31:23;101863.50;;;1.76;84.18
86328;BME280;76984;52.332;10.562;2024-03-07T01:33:49;101849.88;;;1.69;84.09
86328;BME280;76984;52.332;10.562;2024-03-07T01:36:14;101850.22;;;1.80;84.24
86328;BME280;76984;52.332;10.562;2024-03-07T01:38:40;101836.84;;;1.71;84.46
86328;BME280;76984;52.332;10.562;2024-03-07T01:41:05;101853.13;;;1.85;84.34
86328;BME280;76984;52.332;10.562;2024-03-07T01:43:30;101838.63;;;1.84;84.69
86328;BME280;76984;52.332;10.562;2024-03-07T01:45:56;101851.97;;;1.92;84.78
86328;BME280;76984;52.332;10.562;2024-03-07T01:48:26;101853.81;;;1.98;84.01
86328;BME280;76984;52.332;10.562;2024-03-07T01:50:54;101820.72;;;1.88;84.96
86328;BME280;76984;52.332;10.562;2024-03-07T01:53:21;101822.63;;;1.88;83.89
86328;BME280;76984;52.332;10.562;2024-03-07T01:55:47;101828.16;;;1.99;84.86
86328;BME280;76984;52.332;10.562;2024-03-07T01:58:18;101836.59;;;2.16;85.21
86328;BME280;76984;52.332;10.562;2024-03-07T02:00:44;101843.44;;;2.25;84.66
86328;BME280;76984;52.332;10.562;2024-03-07T02:03:09;101824.78;;;2.22;83.92
86328;BME280;76984;52.332;10.562;2024-03-07T02:05:35;101830.75;;;2.31;83.89
86328;BME280;76984;52.332;10.562;2024-03-07T02:08:00;101832.34;;;2.39;84.00
86328;BME280;76984;52.332;10.562;2024-03-07T02:10:27;101800.53;;;2.26;83.60
86328;BME280;76984;52.332;10.562;2024-03-07T02:12:52;101824.66;;;2.47;83.75
86328;BME280;76984;52.332;10.562;2024-03-07T02:15:17;101805.59;;;2.41;83.62
86328;BME280;76984;52.332;10.562;2024-03-07T02:17:43;101820.78;;;2.55;83.73
86328;BME280;76984;52.332;10.562;2024-03-07T02:20:09;101810.31;;;2.52;83.46
86328;BME280;76984;52.332;10.562;2024-03-07T02:22:36;101812.25;;;2.63;83.09
86328;BME280;76984;52.332;10.562;2024-03-07T02:25:02;101819.41;;;2.64;83.59
86328;BME280;76984;52.332;10.562;2024-03-07T02:27:27;101807.38;;;2.65;83.05
86328;BME280;76984;52.332;10.562;2024-03-07T02:29:52;101793.19;;;2.56;83.24
86328;BME280;76984;52.332;10.562;2024-03-07T02:32:18;101798.00;;;2.61;83.59
86328;BME280;76984;52.332;10.562;2024-03-07T02:34:43;101804.66;;;2.65;83.13
86328;BME280;76984;52.332;10.562;2024-03-07T02:37:09;101814.22;;;2.74;83.20
86328;BME280;76984;52.332;10.562;2024-03-07T02:39:35;101814.22;;;2.74;83.47
86328;BME280;76984;52.332;10.562;2024-03-07T02:42:01;101815.41;;;2.78;83.84
86328;BME280;76984;52.332;10.562;2024-03-07T02:44:26;101795.38;;;2.66;83.08
86328;BME280;76984;52.332;10.562;2024-03-07T02:46:51;101802.78;;;2.77;83.00
86328;BME280;76984;52.332;10.562;2024-03-07T02:49:17;101807.47;;;2.88;82.81
86328;BME280;76984;52.332;10.562;2024-03-07T02:51:42;101794.81;;;2.76;83.28
86328;BME280;76984;52.332;10.562;2024-03-07T02:54:08;101782.44;;;2.73;83.13
86328;BME280;76984;52.332;10.562;2024-03-07T02:56:34;101809.53;;;2.93;83.08
86328;BME280;76984;52.332;10.562;2024-03-07T02:59:00;101799.66;;;2.92;82.95
86328;BME280;76984;52.332;10.562;2024-03-07T03:01:25;101807.63;;;2.94;83.31
86328;BME280;76984;52.332;10.562;2024-03-07T03:03:50;101812.63;;;2.97;83.33
86328;BME280;76984;52.332;10.562;2024-03-07T03:06:16;101806.31;;;2.96;82.97
86328;BME280;76984;52.332;10.562;2024-03-07T03:08:41;101779.50;;;2.86;82.91
86328;BME280;76984;52.332;10.562;2024-03-07T03:11:06;101803.47;;;3.03;83.34
86328;BME280;76984;52.332;10.562;2024-03-07T03:13:34;101780.59;;;2.97;82.72
86328;BME280;76984;52.332;10.562;2024-03-07T03:16:03;101785.84;;;2.99;82.89
86328;BME280;76984;52.332;10.562;2024-03-07T03:18:29;101794.09;;;3.10;82.71
86328;BME280;76984;52.332;10.562;2024-03-07T03:20:56;101803.97;;;3.11;82.48
86328;BME280;76984;52.332;10.562;2024-03-07T03:23:21;101799.09;;;3.13;83.06
86328;BME280;76984;52.332;10.562;2024-03-07T03:25:47;101792.28;;;3.04;82.83
86328;BME280;76984;52.332;10.562;2024-03-07T03:28:13;101804.34;;;3.15;83.30
86328;BME280;76984;52.332;10.562;2024-03-07T03:30:39;101793.38;;;3.15;82.72
86328;BME280;76984;52.332;10.562;2024-03-07T03:33:06;101779.59;;;3.10;83.20
86328;BME280;76984;52.332;10.562;2024-03-07T03:35:32;101797.22;;;3.26;83.16
86328;BME280;76984;52.332;10.562;2024-03-07T03:37:58;101795.31;;;3.26;83.21
86328;BME280;76984;52.332;10.562;2024-03-07T03:40:24;101792.94;;;3.30;83.96
86328;BME280;76984;52.332;10.562;2024-03-07T03:42:49;101790.44;;;3.28;83.59
86328;BME280;76984;52.332;10.562;2024-03-07T03:45:14;101789.59;;;3.28;83.31
86328;BME280;76984;52.332;10.562;2024-03-07T03:47:41;101780.09;;;3.30;83.09
86328;BME280;76984;52.332;10.562;2024-03-07T03:50:09;101793.19;;;3.40;83.15
86328;BME280;76984;52.332;10.562;2024-03-07T03:52:36;101784.97;;;3.40;83.39
86328;BME280;76984;52.332;10.562;2024-03-07T03:55:02;101766.41;;;3.30;83.60
86328;BME280;76984;52.332;10.562;2024-03-07T03:57:29;101763.28;;;3.27;83.16
86328;BME280;76984;52.332;10.562;2024-03-07T03:59:55;101774.72;;;3.35;83.49
86328;BME280;76984;52.332;10.562;2024-03-07T04:02:22;101789.03;;;3.49;83.51
86328;BME280;76984;52.332;10.562;2024-03-07T04:04:48;101786.31;;;3.49;83.45
86328;BME280;76984;52.332;10.562;2024-03-07T04:07:14;101761.63;;;3.37;83.33
86328;BME280;76984;52.332;10.562;2024-03-07T04:09:41;101784.25;;;3.56;83.84
86328;BME280;76984;52.332;10.562;2024-03-07T04:12:07;101759.75;;;3.38;83.48
86328;BME280;76984;52.332;10.562;2024-03-07T04:14:35;101773.06;;;3.46;83.34
86328;BME280;76984;52.332;10.562;2024-03-07T04:17:01;101776.53;;;3.53;84.09
86328;BME280;76984;52.332;10.562;2024-03-07T04:19:27;101790.34;;;3.58;84.06
86328;BME280;76984;52.332;10.562;2024-03-07T04:21:52;101760.00;;;3.48;83.92
86328;BME280;76984;52.332;10.562;2024-03-07T04:24:19;101783.06;;;3.64;84.25
86328;BME280;76984;52.332;10.562;2024-03-07T04:26:45;101764.75;;;3.53;83.64
86328;BME280;76984;52.332;10.562;2024-03-07T04:29:10;101789.50;;;3.69;84.10
86328;BME280;76984;52.332;10.562;2024-03-07T04:31:36;101780.22;;;3.70;83.78
86328;BME280;76984;52.332;10.562;2024-03-07T04:34:02;101784.75;;;3.77;84.18
86328;BME280;76984;52.332;10.562;2024-03-07T04:36:27;101739.59;;;3.56;84.21
86328;BME280;76984;52.332;10.562;2024-03-07T04:38:53;101755.69;;;3.64;84.31
86328;BME280;76984;52.332;10.562;2024-03-07T04:41:19;101781.03;;;3.83;85.47
86328;BME280;76984;52.332;10.562;2024-03-07T04:43:44;101762.59;;;3.78;85.28
86328;BME280;76984;52.332;10.562;2024-03-07T04:46:10;101764.72;;;3.76;84.96
86328;BME280;76984;52.332;10.562;2024-03-07T04:48:35;101776.63;;;3.93;85.50
86328;BME280;76984;52.332;10.562;2024-03-07T04:51:00;101756.03;;;3.79;85.51
86328;BME280;76984;52.332;10.562;2024-03-07T04:53:26;101774.69;;;3.94;85.84
86328;BME280;76984;52.332;10.562;2024-03-07T04:55:54;101780.81;;;3.96;85.89
86328;BME280;76984;52.332;10.562;2024-03-07T04:58:19;101746.03;;;3.73;85.79
86328;BME280;76984;52.332;10.562;2024-03-07T05:00:45;101762.81;;;3.88;86.32
86328;BME280;76984;52.332;10.562;2024-03-07T05:03:10;101769.22;;;3.94;86.22
86328;BME280;76984;52.332;10.562;2024-03-07T05:05:36;101765.19;;;3.96;86.20
86328;BME280;76984;52.332;10.562;2024-03-07T05:08:01;101754.09;;;3.91;86.49
86328;BME280;76984;52.332;10.562;2024-03-07T05:10:29;101764.56;;;3.94;86.92
86328;BME280;76984;52.332;10.562;2024-03-07T05:12:56;101783.75;;;4.06;86.60
86328;BME280;76984;52.332;10.562;2024-03-07T05:15:24;101785.44;;;4.07;86.65
86328;BME280;76984;52.332;10.562;2024-03-07T05:17:51;101786.59;;;4.11;86.83
86328;BME280;76984;52.332;10.562;2024-03-07T05:20:16;101775.28;;;4.08;86.48
86328;BME280;76984;52.332;10.562;2024-03-07T05:22:42;101785.63;;;4.17;86.93
86328;BME280;76984;52.332;10.562;2024-03-07T05:25:15;101785.28;;;4.14;87.17
86328;BME280;76984;52.332;10.562;2024-03-07T05:27:41;101790.13;;;4.23;87.09
86328;BME280;76984;52.332;10.562;2024-03-07T05:30:07;101793.97;;;4.22;87.04
86328;BME280;76984;52.332;10.562;2024-03-07T05:32:34;101792.28;;;4.21;86.82
86328;BME280;76984;52.332;10.562;2024-03-07T05:35:00;101790.13;;;4.23;86.69
86328;BME280;76984;52.332;10.562;2024-03-07T05:37:25;101764.91;;;4.10;87.01
86328;BME280;76984;52.332;10.562;2024-03-07T05:39:51;101786.09;;;4.26;87.01
86328;BME280;76984;52.332;10.562;2024-03-07T05:42:17;101796.25;;;4.25;87.18
86328;BME280;76984;52.332;10.562;2024-03-07T05:44:43;101792.03;;;4.23;86.73
86328;BME280;76984;52.332;10.562;2024-03-07T05:47:09;101791.09;;;4.29;87.24
86328;BME280;76984;52.332;10.562;2024-03-07T05:49:35;101780.16;;;4.17;86.84
86328;BME280;76984;52.332;10.562;2024-03-07T05:52:02;101805.63;;;4.29;86.83
86328;BME280;76984;52.332;10.562;2024-03-07T05:54:27;101796.06;;;4.32;87.01
86328;BME280;76984;52.332;10.562;2024-03-07T05:56:54;101788.22;;;4.24;86.83
86328;BME280;76984;52.332;10.562;2024-03-07T05:59:20;101782.75;;;4.24;86.74
86328;BME280;76984;52.332;10.562;2024-03-07T06:01:45;101800.47;;;4.33;86.74
86328;BME280;76984;52.332;10.562;2024-03-07T06:04:11;101803.84;;;4.35;87.01
86328;BME280;76984;52.332;10.562;2024-03-07T06:06:36;101800.97;;;4.30;86.85
86328;BME280;76984;52.332;10.562;2024-03-07T06:09:07;101803.22;;;4.33;87.00
86328;BME280;76984;52.332;10.562;2024-03-07T06:11:36;101813.97;;;4.35;87.05
86328;BME280;76984;52.332;10.562;2024-03-07T06:14:02;101800.88;;;4.25;86.46
86328;BME280;76984;52.332;10.562;2024-03-07T06:16:29;101813.50;;;4.38;86.43
86328;BME280;76984;52.332;10.562;2024-03-07T06:18:58;101811.56;;;4.38;86.74
86328;BME280;76984;52.332;10.562;2024-03-07T06:21:23;101820.97;;;4.42;86.94
86328;BME280;76984;52.332;10.562;2024-03-07T06:23:48;101792.41;;;4.26;86.34
86328;BME280;76984;52.332;10.562;2024-03-07T06:26:20;101814.06;;;4.40;86.63
86328;BME280;76984;52.332;10.562;2024-03-07T06:29:02;101798.50;;;4.28;86.27
86328;BME280;76984;52.332;10.562;2024-03-07T06:31:27;101821.47;;;4.39;86.60
86328;BME280;76984;52.332;10.562;2024-03-07T06:33:52;101823.47;;;4.44;86.93
86328;BME280;76984;52.332;10.562;2024-03-07T06:36:17;101808.50;;;4.35;86.99
86328;BME280;76984;52.332;10.562;2024-03-07T06:38:43;101802.06;;;4.29;86.74
86328;BME280;76984;52.332;10.562;2024-03-07T06:41:08;101807.16;;;4.37;86.87
86328;BME280;76984;52.332;10.562;2024-03-07T06:43:35;101829.06;;;4.49;86.87
86328;BME280;76984;52.332;10.562;2024-03-07T06:46:00;101815.69;;;4.52;86.97
86328;BME280;76984;52.332;10.562;2024-03-07T06:48:25;101821.53;;;4.56;86.68
86328;BME280;76984;52.332;10.562;2024-03-07T06:50:51;101805.81;;;4.51;86.88
86328;BME280;76984;52.332;10.562;2024-03-07T06:53:17;101806.06;;;4.50;86.71
86328;BME280;76984;52.332;10.562;2024-03-07T06:55:43;101829.03;;;4.60;86.86
86328;BME280;76984;52.332;10.562;2024-03-07T06:58:08;101824.38;;;4.61;86.49
86328;BME280;76984;52.332;10.562;2024-03-07T07:00:33;101783.81;;;4.35;86.88
86328;BME280;76984;52.332;10.562;2024-03-07T07:03:01;101824.75;;;4.65;86.36
86328;BME280;76984;52.332;10.562;2024-03-07T07:05:28;101818.00;;;4.72;87.37
86328;BME280;76984;52.332;10.562;2024-03-07T07:07:55;101796.81;;;4.68;86.89
86328;BME280;76984;52.332;10.562;2024-03-07T07:10:20;101785.03;;;4.84;86.72
86328;BME280;76984;52.332;10.562;2024-03-07T07:12:49;101802.84;;;4.98;85.60
86328;BME280;76984;52.332;10.562;2024-03-07T07:15:16;101774.97;;;4.89;84.97
86328;BME280;76984;52.332;10.562;2024-03-07T07:17:43;101837.78;;;5.31;84.52
86328;BME280;76984;52.332;10.562;2024-03-07T07:20:12;101833.72;;;5.34;84.28
86328;BME280;76984;52.332;10.562;2024-03-07T07:22:40;101838.13;;;5.35;83.91
86328;BME280;76984;52.332;10.562;2024-03-07T07:25:06;101841.69;;;5.35;83.71
86328;BME280;76984;52.332;10.562;2024-03-07T07:27:44;101839.94;;;5.29;83.71
86328;BME280;76984;52.332;10.562;2024-03-07T07:30:17;101838.44;;;5.22;84.52
86328;BME280;76984;52.332;10.562;2024-03-07T07:32:43;101836.28;;;5.24;84.26
86328;BME280;76984;52.332;10.562;2024-03-07T07:35:10;101803.94;;;4.97;84.41
86328;BME280;76984;52.332;10.562;2024-03-07T07:37:39;101832.00;;;5.16;84.72
86328;BME280;76984;52.332;10.562;2024-03-07T07:40:06;101830.50;;;5.08;84.97
86328;BME280;76984;52.332;10.562;2024-03-07T07:42:34;101793.84;;;4.86;85.11
86328;BME280;76984;52.332;10.562;2024-03-07T07:45:00;101801.72;;;4.82;85.43
86328;BME280;76984;52.332;10.562;2024-03-07T07:47:25;101804.25;;;4.84;85.88
86328;BME280;76984;52.332;10.562;2024-03-07T07:49:51;101788.50;;;4.79;85.68
86328;BME280;76984;52.332;10.562;2024-03-07T07:52:16;101810.84;;;5.00;85.42
86328;BME280;76984;52.332;10.562;2024-03-07T07:54:44;101816.44;;;5.05;85.29
86328;BME280;76984;52.332;10.562;2024-03-07T07:57:09;101820.53;;;5.02;85.23
86328;BME280;76984;52.332;10.562;2024-03-07T07:59:35;101802.28;;;4.96;85.47
86328;BME280;76984;52.332;10.562;2024-03-07T08:02:02;101803.19;;;5.02;85.24
86328;BME280;76984;52.332;10.562;2024-03-07T08:04:27;101817.03;;;5.07;85.91
86328;BME280;76984;52.332;10.562;2024-03-07T08:06:52;101825.25;;;5.07;85.42
86328;BME280;76984;52.332;10.562;2024-03-07T08:09:17;101826.34;;;5.06;84.97
86328;BME280;76984;52.332;10.562;2024-03-07T08:11:43;101817.59;;;5.09;85.29
86328;BME280;76984;52.332;10.562;2024-03-07T08:14:08;101806.28;;;5.05;85.56
86328;BME280;76984;52.332;10.562;2024-03-07T08:16:33;101831.25;;;5.21;84.92
86328;BME280;76984;52.332;10.562;2024-03-07T08:18:59;101804.13;;;5.07;84.96
86328;BME280;76984;52.332;10.562;2024-03-07T08:21:24;101832.00;;;5.16;85.04
86328;BME280;76984;52.332;10.562;2024-03-07T08:23:49;101825.09;;;5.13;84.99
86328;BME280;76984;52.332;10.562;2024-03-07T08:26:15;101799.03;;;4.99;84.95
86328;BME280;76984;52.332;10.562;2024-03-07T08:28:41;101799.13;;;5.04;84.84
86328;BME280;76984;52.332;10.562;2024-03-07T08:31:06;101814.72;;;5.15;85.04
86328;BME280;76984;52.332;10.562;2024-03-07T08:33:31;101817.53;;;5.21;84.41
86328;BME280;76984;52.332;10.562;2024-03-07T08:35:58;101801.66;;;5.23;83.94
86328;BME280;76984;52.332;10.562;2024-03-07T08:38:24;101813.63;;;5.16;84.43
86328;BME280;76984;52.332;10.562;2024-03-07T08:40:49;101804.56;;;5.16;84.07
86328;BME280;76984;52.332;10.562;2024-03-07T08:43:15;101820.53;;;5.19;84.04
86328;BME280;76984;52.332;10.562;2024-03-07T08:45:40;101825.88;;;5.26;83.77
86328;BME280;76984;52.332;10.562;2024-03-07T08:48:06;101806.38;;;5.10;83.68
86328;BME280;76984;52.332;10.562;2024-03-07T08:50:35;101805.63;;;5.15;83.04
86328;BME280;76984;52.332;10.562;2024-03-07T08:53:03;101807.03;;;5.17;83.12
86328;BME280;76984;52.332;10.562;2024-03-07T08:55:29;101782.16;;;5.07;82.84
86328;BME280;76984;52.332;10.562;2024-03-07T08:57:55;101819.88;;;5.29;82.88
86328;BME280;76984;52.332;10.562;2024-03-07T09:00:21;101818.31;;;5.33;82.75
86328;BME280;76984;52.332;10.562;2024-03-07T09:02:48;101830.31;;;5.43;83.15
86328;BME280;76984;52.332;10.562;2024-03-07T09:05:15;101808.97;;;5.34;83.01
86328;BME280;76984;52.332;10.562;2024-03-07T09:07:41;101812.06;;;5.37;83.23
86328;BME280;76984;52.332;10.562;2024-03-07T09:10:06;101827.28;;;5.45;82.76
86328;BME280;76984;52.332;10.562;2024-03-07T09:12:32;101827.97;;;5.52;82.04
86328;BME280;76984;52.332;10.562;2024-03-07T09:14:57;101832.97;;;5.55;82.33
86328;BME280;76984;52.332;10.562;2024-03-07T09:17:23;101818.06;;;5.51;81.73
86328;BME280;76984;52.332;10.562;2024-03-07T09:19:48;101820.06;;;5.56;81.88
86328;BME280;76984;52.332;10.562;2024-03-07T09:22:13;101793.91;;;5.36;81.30
86328;BME280;76984;52.332;10.562;2024-03-07T09:24:39;101815.47;;;5.61;81.38
86328;BME280;76984;52.332;10.562;2024-03-07T09:27:04;101828.56;;;5.71;81.33
86328;BME280;76984;52.332;10.562;2024-03-07T09:29:30;101803.41;;;5.62;80.92
86328;BME280;76984;52.332;10.562;2024-03-07T09:31:55;101815.06;;;5.69;80.28
86328;BME280;76984;52.332;10.562;2024-03-07T09:34:23;101823.94;;;5.77;80.17
86328;BME280;76984;52.332;10.562;2024-03-07T09:36:48;101810.81;;;5.62;80.48
86328;BME280;76984;52.332;10.562;2024-03-07T09:39:14;101807.31;;;5.66;80.61
86328;BME280;76984;52.332;10.562;2024-03-07T09:41:40;101811.63;;;5.79;79.74
86328;BME280;76984;52.332;10.562;2024-03-07T09:44:14;101814.38;;;5.79;79.58
86328;BME280;76984;52.332;10.562;2024-03-07T09:46:47;101826.84;;;5.87;79.55
86328;BME280;76984;52.332;10.562;2024-03-07T09:49:13;101809.25;;;5.88;79.98
86328;BME280;76984;52.332;10.562;2024-03-07T09:51:39;101799.88;;;6.00;79.33
86328;BME280;76984;52.332;10.562;2024-03-07T09:54:04;101792.84;;;6.10;78.79
86328;BME280;76984;52.332;10.562;2024-03-07T09:56:31;101800.97;;;6.21;78.62
86328;BME280;76984;52.332;10.562;2024-03-07T09:59:03;101814.59;;;6.33;77.87
86328;BME280;76984;52.332;10.562;2024-03-07T10:01:30;101798.94;;;6.34;77.71
86328;BME280;76984;52.332;10.562;2024-03-07T10:03:59;101815.81;;;6.42;76.42
86328;BME280;76984;52.332;10.562;2024-03-07T10:06:35;101822.53;;;6.51;76.22
86328;BME280;76984;52.332;10.562;2024-03-07T10:09:00;101787.66;;;6.35;76.24
86328;BME280;76984;52.332;10.562;2024-03-07T10:11:26;101788.25;;;6.37;75.80
86328;BME280;76984;52.332;10.562;2024-03-07T10:13:52;101737.50;;;6.06;74.91
86328;BME280;76984;52.332;10.562;2024-03-07T10:16:18;101794.63;;;6.65;75.17
86328;BME280;76984;52.332;10.562;2024-03-07T10:18:44;101794.63;;;6.92;74.02
86328;BME280;76984;52.332;10.562;2024-03-07T10:21:13;101803.78;;;6.97;71.72
86328;BME280;76984;52.332;10.562;2024-03-07T10:23:38;101792.50;;;6.99;71.43
86328;BME280;76984;52.332;10.562;2024-03-07T10:26:04;101785.34;;;6.98;71.95
86328;BME280;76984;52.332;10.562;2024-03-07T10:28:30;101782.63;;;7.03;70.56
86328;BME280;76984;52.332;10.562;2024-03-07T10:30:56;101770.19;;;6.95;69.11
86328;BME280;76984;52.332;10.562;2024-03-07T10:33:26;101792.16;;;7.22;69.67
86328;BME280;76984;52.332;10.562;2024-03-07T10:35:52;101792.88;;;7.39;68.59
86328;BME280;76984;52.332;10.562;2024-03-07T10:38:18;101789.84;;;7.41;68.58
86328;BME280;76984;52.332;10.562;2024-03-07T10:40:46;101783.84;;;7.49;66.44
86328;BME280;76984;52.332;10.562;2024-03-07T10:43:12;101775.94;;;7.58;64.81
86328;BME280;76984;52.332;10.562;2024-03-07T10:45:47;101798.13;;;7.78;63.63
86328;BME280;76984;52.332;10.562;2024-03-07T10:48:13;101792.66;;;7.83;63.73
86328;BME280;76984;52.332;10.562;2024-03-07T10:56:26;101794.53;;;7.78;63.94
86328;BME280;76984;52.332;10.562;2024-03-07T10:58:58;101794.25;;;7.79;63.88
86328;BME280;76984;52.332;10.562;2024-03-07T11:01:30;101772.69;;;7.66;63.49
86328;BME280;76984;52.332;10.562;2024-03-07T11:03:57;101793.16;;;7.75;63.84
86328;BME280;76984;52.332;10.562;2024-03-07T11:06:24;101787.03;;;7.68;63.76
86328;BME280;76984;52.332;10.562;2024-03-07T11:08:50;101774.25;;;7.57;64.21
86328;BME280;76984;52.332;10.562;2024-03-07T11:11:17;101779.84;;;7.67;63.05
86328;BME280;76984;52.332;10.562;2024-03-07T11:13:43;101777.22;;;7.87;60.28
86328;BME280;76984;52.332;10.562;2024-03-07T11:16:10;101774.53;;;7.97;60.72
86328;BME280;76984;52.332;10.562;2024-03-07T11:18:38;101759.94;;;8.02;62.86
86328;BME280;76984;52.332;10.562;2024-03-07T11:21:05;101761.06;;;8.06;62.73
86328;BME280;76984;52.332;10.562;2024-03-07T11:23:33;101768.53;;;8.16;62.68
86328;BME280;76984;52.332;10.562;2024-03-07T11:26:04;101768.22;;;8.07;62.93
86328;BME280;76984;52.332;10.562;2024-03-07T11:28:37;101743.13;;;8.09;63.02
86328;BME280;76984;52.332;10.562;2024-03-07T11:31:25;101760.59;;;8.29;60.63
86328;BME280;76984;52.332;10.562;2024-03-07T11:34:17;101752.16;;;8.51;60.29
86328;BME280;76984;52.332;10.562;2024-03-07T11:36:46;101731.19;;;8.55;58.25
86328;BME280;76984;52.332;10.562;2024-03-07T11:39:46;101752.53;;;8.91;57.42
86328;BME280;76984;52.332;10.562;2024-03-07T11:42:30;101727.94;;;9.04;56.40
86328;BME280;76984;52.332;10.562;2024-03-07T11:44:59;101739.56;;;9.22;52.42
86328;BME280;76984;52.332;10.562;2024-03-07T11:47:25;101741.47;;;9.06;52.35
86328;BME280;76984;52.332;10.562;2024-03-07T11:49:55;101739.00;;;8.99;52.47
86328;BME280;76984;52.332;10.562;2024-03-07T11:52:23;101718.25;;;8.81;53.65
86328;BME280;76984;52.332;10.562;2024-03-07T11:54:48;101732.34;;;8.95;55.43
86328;BME280;76984;52.332;10.562;2024-03-07T11:57:17;101724.63;;;9.02;55.55
86328;BME280;76984;52.332;10.562;2024-03-07T11:59:45;101735.13;;;9.10;54.45
86328;BME280;76984;52.332;10.562;2024-03-07T12:02:13;101717.19;;;8.98;53.16
86328;BME280;76984;52.332;10.562;2024-03-07T12:04:41;101704.44;;;8.92;52.28
86328;BME280;76984;52.332;10.562;2024-03-07T12:07:06;101709.97;;;8.71;51.61
86328;BME280;76984;52.332;10.562;2024-03-07T12:09:31;101701.66;;;8.61;53.26
86328;BME280;76984;52.332;10.562;2024-03-07T12:11:57;101718.22;;;8.66;53.71
86328;BME280;76984;52.332;10.562;2024-03-07T12:14:24;101714.91;;;8.59;53.69
86328;BME280;76984;52.332;10.562;2024-03-07T12:16:49;101691.94;;;8.48;53.76
86328;BME280;76984;52.332;10.562;2024-03-07T12:19:17;101701.94;;;8.65;53.51
86328;BME280;76984;52.332;10.562;2024-03-07T12:21:46;101706.91;;;8.68;54.44
86328;BME280;76984;52.332;10.562;2024-03-07T12:24:12;101703.31;;;8.72;54.50
86328;BME280;76984;52.332;10.562;2024-03-07T12:26:38;101688.13;;;8.49;53.61
86328;BME280;76984;52.332;10.562;2024-03-07T12:29:08;101697.50;;;8.58;53.97
86328;BME280;76984;52.332;10.562;2024-03-07T12:31:37;101699.72;;;8.67;53.79
86328;BME280;76984;52.332;10.562;2024-03-07T12:34:02;101690.59;;;8.56;53.67
86328;BME280;76984;52.332;10.562;2024-03-07T12:36:30;101702.25;;;8.78;53.43
86328;BME280;76984;52.332;10.562;2024-03-07T12:39:02;101674.63;;;8.78;52.95
86328;BME280;76984;52.332;10.562;2024-03-07T12:41:49;101686.19;;;8.75;53.75
86328;BME280;76984;52.332;10.562;2024-03-07T12:44:18;101682.06;;;8.78;53.41
86328;BME280;76984;52.332;10.562;2024-03-07T12:46:46;101692.56;;;8.91;53.14
86328;BME280;76984;52.332;10.562;2024-03-07T12:49:11;101679.84;;;8.85;54.34
86328;BME280;76984;52.332;10.562;2024-03-07T12:51:40;101692.56;;;8.86;54.57
86328;BME280;76984;52.332;10.562;2024-03-07T12:54:07;101696.44;;;8.90;54.09